Time;durP1;ratioP1;P1;durP2;ratioP2;P2;SDS_P1;SDS_P2;PMS_P1;PMS_P2;Temp;Humidity;BMP_temperature;BMP_pressure;BME280_temperature;BME280_humidity;BME280_pressure;Samples;Min_cycle;Max_cycle;Signal;HPM_P1;HPM_P2
2022/09/03 00:01:37;;;;;;;;;;;;;;;;;;6232074;22;19926;-88
2022/09/03 00:04:03;;;;;;;;;;;;;;;;;;6261011;22;20248;-88
2022/09/03 00:06:29;;;;;;;;;;;;;;;;;;6259615;22;19919;-88
2022/09/03 00:08:55;;;;;;;;;;;;;;;;;;6263369;22;19926;-88
2022/09/03 00:11:24;;;;;;;;;;;;;;;;;;6261013;22;19915;-88
2022/09/03 00:13:50;;;;;;;;;;;;;;;;;;6236197;22;20358;-88
2022/09/03 00:16:20;;;;;;;;;;;;;;;;;;6236215;22;19915;-88
2022/09/03 00:18:47;;;;;;;;;;;;;;;;;;6256790;22;19978;-87
2022/09/03 00:21:13;;;;;;;;;;;;;;;;;;6236373;22;19923;-88
2022/09/03 00:23:39;;;;;;;;;;;;;;;;;;6259088;22;20328;-88
2022/09/03 00:26:05;;;;;;;;;;;;;;;;;;6259643;22;19926;-87
2022/09/03 00:28:31;;;;;;;;;;;;;;;;;;6231342;22;19919;-88
2022/09/03 00:30:57;;;;;;;;;;;;;;;;;;6235666;22;20360;-87
2022/09/03 00:33:23;;;;;;;;;;;;;;;;;;6233174;22;19938;-87
2022/09/03 00:35:49;;;;;;;;;;;;;;;;;;6234958;22;19919;-88
2022/09/03 00:38:15;;;;;;;;;;;;;;;;;;6235210;22;20342;-88
2022/09/03 00:40:41;;;;;;;;;;;;;;;;;;6233068;22;20191;-88
2022/09/03 00:43:07;;;;;;;;;;;;;;;;;;6236461;22;19954;-87
2022/09/03 00:45:33;;;;;;;;;;;;;;;;;;6258374;22;19977;-88
2022/09/03 00:47:59;;;;;;;;;;;;;;;;;;6234826;22;20243;-88
2022/09/03 00:50:25;;;;;;;;;;;;;;;;;;6259035;22;19916;-87
2022/09/03 00:52:51;;;;;;;;;;;;;;;;;;6234928;22;20046;-88
2022/09/03 00:55:17;;;;;;;;;;;;;;;;;;6259987;22;19919;-88
2022/09/03 00:57:43;;;;;;;;;;;;;;;;;;6232858;22;20559;-87
2022/09/03 01:00:09;;;;;;;;;;;;;;;;;;6234978;22;20423;-87
2022/09/03 01:02:35;;;;;;;;;;;;;;;;;;6232446;22;19919;-88
2022/09/03 01:05:01;;;;;;;;;;;;;;;;;;6261316;22;19993;-88
2022/09/03 01:07:30;;;;;;;;;;;;;;;;;;6233039;22;19919;-87
2022/09/03 01:09:56;;;;;;;;;;;;;;;;;;6262785;22;19919;-87
2022/09/03 01:12:22;;;;;;;;;;;;;;;;;;6236310;22;20380;-87
2022/09/03 01:14:48;;;;;;;;;;;;;;;;;;6237304;22;19918;-88
2022/09/03 01:17:14;;;;;;;;;;;;;;;;;;6261739;22;19915;-87
2022/09/03 01:19:40;;;;;;;;;;;;;;;;;;6259119;22;19938;-87
2022/09/03 01:22:06;;;;;;;;;;;;;;;;;;6237107;22;19919;-87
2022/09/03 01:24:32;;;;;;;;;;;;;;;;;;6231576;22;20252;-87
2022/09/03 01:26:58;;;;;;;;;;;;;;;;;;6260729;22;19916;-87
2022/09/03 01:29:25;;;;;;;;;;;;;;;;;;6233908;22;20239;-87
2022/09/03 01:31:51;;;;;;;;;;;;;;;;;;6262899;22;19923;-87
2022/09/03 01:34:17;;;;;;;;;;;;;;;;;;6261046;22;19923;-87
2022/09/03 01:36:43;;;;;;;;;;;;;;;;;;6227220;22;20347;-87
2022/09/03 01:39:09;;;;;;;;;;;;;;;;;;6262365;22;19915;-87
2022/09/03 01:44:21;;;;;;;;;;;;;;;;;;6262425;22;20319;-88
2022/09/03 01:46:50;;;;;;;;;;;;;;;;;;6235343;22;20009;-87
2022/09/03 01:49:19;;;;;;;;;;;;;;;;;;6264405;22;19950;-88
2022/09/03 01:51:45;;;;;;;;;;;;;;;;;;6232799;22;19923;-88
2022/09/03 01:54:11;;;;;;;;;;;;;;;;;;6236342;22;19926;-88
2022/09/03 01:56:37;;;;;;;;;;;;;;;;;;6233788;22;19923;-87
2022/09/03 01:59:05;;;;;;;;;;;;;;;;;;6260835;22;19919;-88
2022/09/03 02:01:31;;;;;;;;;;;;;;;;;;6259503;22;19919;-87
2022/09/03 02:03:58;;;;;;;;;;;;;;;;;;6236105;22;19926;-88
2022/09/03 02:06:24;;;;;;;;;;;;;;;;;;6234339;22;20347;-87
2022/09/03 02:08:50;;;;;;;;;;;;;;;;;;6236264;22;20002;-87
2022/09/03 02:11:16;;;;;;;;;;;;;;;;;;6236489;22;19955;-87
2022/09/03 02:13:42;;;;;;;;;;;;;;;;;;6236047;22;19919;-88
2022/09/03 02:16:08;;;;;;;;;;;;;;;;;;6237656;22;20006;-87
2022/09/03 02:18:35;;;;;;;;;;;;;;;;;;6233834;22;19915;-87
2022/09/03 02:21:00;;;;;;;;;;;;;;;;;;6262754;22;19919;-87
2022/09/03 02:23:27;;;;;;;;;;;;;;;;;;6259156;22;20348;-87
2022/09/03 02:25:53;;;;;;;;;;;;;;;;;;6260661;22;20632;-88
2022/09/03 02:28:19;;;;;;;;;;;;;;;;;;6235035;22;19919;-88
2022/09/03 02:30:45;;;;;;;;;;;;;;;;;;6233629;22;20247;-88
2022/09/03 02:33:10;;;;;;;;;;;;;;;;;;6262026;22;20002;-88
2022/09/03 02:35:36;;;;;;;;;;;;;;;;;;6234457;22;19915;-88
2022/09/03 02:38:02;;;;;;;;;;;;;;;;;;6234276;22;19979;-87
2022/09/03 02:40:28;;;;;;;;;;;;;;;;;;6259862;22;19957;-87
2022/09/03 02:42:54;;;;;;;;;;;;;;;;;;6236816;22;19919;-88
2022/09/03 02:45:20;;;;;;;;;;;;;;;;;;6236477;22;19965;-88
2022/09/03 02:47:46;;;;;;;;;;;;;;;;;;6234135;22;19919;-87
2022/09/03 02:50:12;;;;;;;;;;;;;;;;;;6262877;22;19915;-87
2022/09/03 02:52:39;;;;;;;;;;;;;;;;;;6232893;22;19955;-87
2022/09/03 02:55:04;;;;;;;;;;;;;;;;;;6260261;22;19993;-87
2022/09/03 02:57:30;;;;;;;;;;;;;;;;;;6232393;22;20382;-87
2022/09/03 02:59:56;;;;;;;;;;;;;;;;;;6262171;22;19942;-87
2022/09/03 03:02:22;;;;;;;;;;;;;;;;;;6233835;22;19926;-87
2022/09/03 03:04:48;;;;;;;;;;;;;;;;;;6236390;22;20299;-87
2022/09/03 03:07:14;;;;;;;;;;;;;;;;;;6235441;22;19919;-87
2022/09/03 03:09:40;;;;;;;;;;;;;;;;;;6233905;22;19923;-87
2022/09/03 03:12:08;;;;;;;;;;;;;;;;;;6236711;22;19923;-87
2022/09/03 03:14:34;;;;;;;;;;;;;;;;;;6260476;22;19915;-87
2022/09/03 03:17:00;;;;;;;;;;;;;;;;;;6264621;22;19926;-87
2022/09/03 03:19:26;;;;;;;;;;;;;;;;;;6234362;22;19962;-87
2022/09/03 03:21:52;;;;;;;;;;;;;;;;;;6261212;22;20733;-87
2022/09/03 03:24:18;;;;;;;;;;;;;;;;;;6259603;22;19919;-87
2022/09/03 03:26:44;;;;;;;;;;;;;;;;;;6233212;22;19919;-87
2022/09/03 03:29:11;;;;;;;;;;;;;;;;;;6260670;22;19950;-87
2022/09/03 03:31:37;;;;;;;;;;;;;;;;;;6259021;22;20183;-88
2022/09/03 03:34:02;;;;;;;;;;;;;;;;;;6260747;22;19923;-87
2022/09/03 03:36:28;;;;;;;;;;;;;;;;;;6259199;22;19919;-87
2022/09/03 03:38:54;;;;;;;;;;;;;;;;;;6260425;22;19969;-88
2022/09/03 03:41:20;;;;;;;;;;;;;;;;;;6234878;22;19919;-87
2022/09/03 03:43:49;;;;;;;;;;;;;;;;;;6236335;22;20690;-88
2022/09/03 03:46:15;;;;;;;;;;;;;;;;;;6236875;22;19923;-88
2022/09/03 03:48:41;;;;;;;;;;;;;;;;;;6232998;22;20905;-87
2022/09/03 03:51:07;;;;;;;;;;;;;;;;;;6261291;22;19927;-88
2022/09/03 03:53:33;;;;;;;;;;;;;;;;;;6258874;22;19923;-87
2022/09/03 03:56:00;;;;;;;;;;;;;;;;;;6261343;22;19919;-87
2022/09/03 03:58:25;;;;;;;;;;;;;;;;;;6230802;22;20861;-87
2022/09/03 04:00:51;;;;;;;;;;;;;;;;;;6235388;22;19919;-87
2022/09/03 04:03:17;;;;;;;;;;;;;;;;;;6234609;22;20327;-87
2022/09/03 04:05:43;;;;;;;;;;;;;;;;;;6233372;22;20256;-86
2022/09/03 04:08:09;;;;;;;;;;;;;;;;;;6235012;22;19919;-87
2022/09/03 04:10:35;;;;;;;;;;;;;;;;;;6234097;22;19919;-88
2022/09/03 04:13:01;;;;;;;;;;;;;;;;;;6260261;22;19923;-88
2022/09/03 04:15:27;;;;;;;;;;;;;;;;;;6233915;22;19919;-88
2022/09/03 04:17:53;;;;;;;;;;;;;;;;;;6262960;22;19930;-88
2022/09/03 04:20:19;;;;;;;;;;;;;;;;;;6238141;22;19955;-87
2022/09/03 04:22:45;;;;;;;;;;;;;;;;;;6258711;22;19964;-88
2022/09/03 04:25:11;;;;;;;;;;;;;;;;;;6259373;22;19973;-87
2022/09/03 04:27:37;;;;;;;;;;;;;;;;;;6233066;22;19929;-87
2022/09/03 04:30:03;;;;;;;;;;;;;;;;;;6260667;22;19954;-87
2022/09/03 04:35:15;;;;;;;;;;;;;;;;;;6260243;22;19958;-88
2022/09/03 04:37:40;;;;;;;;;;;;;;;;;;6233675;22;20311;-88
2022/09/03 04:40:06;;;;;;;;;;;;;;;;;;6258862;22;19934;-87
2022/09/03 04:42:32;;;;;;;;;;;;;;;;;;6235131;22;19919;-87
2022/09/03 04:44:58;;;;;;;;;;;;;;;;;;6260228;22;19986;-88
2022/09/03 04:47:25;;;;;;;;;;;;;;;;;;6260858;22;19919;-88
2022/09/03 04:49:51;;;;;;;;;;;;;;;;;;6238589;22;20240;-88
2022/09/03 04:52:18;;;;;;;;;;;;;;;;;;6262055;22;19927;-87
2022/09/03 04:54:44;;;;;;;;;;;;;;;;;;6235603;22;19954;-88
2022/09/03 04:57:10;;;;;;;;;;;;;;;;;;6261477;22;19978;-88
2022/09/03 04:59:36;;;;;;;;;;;;;;;;;;6233813;22;19926;-87
2022/09/03 05:02:02;;;;;;;;;;;;;;;;;;6262302;22;19925;-87
2022/09/03 05:04:28;;;;;;;;;;;;;;;;;;6235474;22;19990;-88
2022/09/03 05:06:54;;;;;;;;;;;;;;;;;;6238439;22;19923;-88
2022/09/03 05:09:20;;;;;;;;;;;;;;;;;;6262759;22;19950;-87
2022/09/03 05:11:46;;;;;;;;;;;;;;;;;;6234380;22;20001;-87
2022/09/03 05:14:12;;;;;;;;;;;;;;;;;;6237610;22;20299;-88
2022/09/03 05:16:38;;;;;;;;;;;;;;;;;;6235325;22;20252;-87
2022/09/03 05:19:04;;;;;;;;;;;;;;;;;;6236565;22;20624;-88
2022/09/03 05:21:30;;;;;;;;;;;;;;;;;;6235462;22;19915;-87
2022/09/03 05:23:56;;;;;;;;;;;;;;;;;;6264138;22;19938;-87
2022/09/03 05:26:22;;;;;;;;;;;;;;;;;;6235193;22;20008;-87
2022/09/03 05:28:48;;;;;;;;;;;;;;;;;;6237157;22;20237;-88
2022/09/03 05:31:15;;;;;;;;;;;;;;;;;;6235205;22;19969;-87
2022/09/03 05:33:41;;;;;;;;;;;;;;;;;;6234559;22;19924;-88
2022/09/03 05:36:07;;;;;;;;;;;;;;;;;;6237517;22;19916;-88
2022/09/03 05:38:33;;;;;;;;;;;;;;;;;;6260344;22;19941;-88
2022/09/03 05:40:59;;;;;;;;;;;;;;;;;;6260493;22;19919;-87
2022/09/03 05:43:25;;;;;;;;;;;;;;;;;;6260080;22;19960;-87
2022/09/03 05:45:51;;;;;;;;;;;;;;;;;;6263077;22;20392;-88
2022/09/03 05:48:17;;;;;;;;;;;;;;;;;;6261827;22;19915;-87
2022/09/03 05:50:43;;;;;;;;;;;;;;;;;;6260029;22;19966;-88
2022/09/03 05:53:09;;;;;;;;;;;;;;;;;;6260186;22;19994;-87
2022/09/03 05:55:35;;;;;;;;;;;;;;;;;;6259106;22;19925;-88
2022/09/03 05:58:01;;;;;;;;;;;;;;;;;;6262011;22;19957;-87
2022/09/03 06:00:27;;;;;;;;;;;;;;;;;;6233648;22;19915;-87
2022/09/03 06:02:53;;;;;;;;;;;;;;;;;;6235983;22;19926;-88
2022/09/03 06:05:19;;;;;;;;;;;;;;;;;;6260929;22;19915;-87
2022/09/03 06:07:48;;;;;;;;;;;;;;;;;;6233848;22;19919;-87
2022/09/03 06:10:15;;;;;;;;;;;;;;;;;;6238043;22;19915;-88
2022/09/03 06:12:41;;;;;;;;;;;;;;;;;;6257979;22;20255;-87
2022/09/03 06:15:07;;;;;;;;;;;;;;;;;;6236333;22;19927;-87
2022/09/03 06:17:33;;;;;;;;;;;;;;;;;;6233251;22;19923;-88
2022/09/03 06:19:59;;;;;;;;;;;;;;;;;;6263544;22;19919;-87
2022/09/03 06:22:27;;;;;;;;;;;;;;;;;;6233355;22;20198;-87
2022/09/03 06:24:53;;;;;;;;;;;;;;;;;;6238599;22;19915;-87
2022/09/03 06:27:20;;;;;;;;;;;;;;;;;;6237466;22;19969;-87
2022/09/03 06:29:46;;;;;;;;;;;;;;;;;;6259406;22;19919;-88
2022/09/03 06:32:12;;;;;;;;;;;;;;;;;;6261190;22;19923;-87
2022/09/03 06:34:38;;;;;;;;;;;;;;;;;;6259667;22;19919;-88
2022/09/03 06:37:04;;;;;;;;;;;;;;;;;;6235882;22;19947;-87
2022/09/03 06:39:30;;;;;;;;;;;;;;;;;;6234594;22;19922;-88
2022/09/03 06:41:56;;;;;;;;;;;;;;;;;;6262272;22;20349;-87
2022/09/03 06:44:24;;;;;;;;;;;;;;;;;;6232523;22;20185;-87
2022/09/03 06:46:52;;;;;;;;;;;;;;;;;;6261212;22;20331;-87
2022/09/03 06:49:19;;;;;;;;;;;;;;;;;;6236776;22;19923;-87
2022/09/03 06:51:45;;;;;;;;;;;;;;;;;;6258550;22;20391;-87
2022/09/03 06:54:11;;;;;;;;;;;;;;;;;;6262402;22;20009;-87
2022/09/03 06:56:37;;;;;;;;;;;;;;;;;;6231246;22;19969;-88
2022/09/03 06:59:03;;;;;;;;;;;;;;;;;;6261054;22;19927;-87
2022/09/03 07:01:29;;;;;;;;;;;;;;;;;;6230328;22;19919;-87
2022/09/03 07:03:55;;;;;;;;;;;;;;;;;;6236171;22;20320;-88
2022/09/03 07:06:24;;;;;;;;;;;;;;;;;;6262659;22;20383;-88
2022/09/03 07:08:50;;;;;;;;;;;;;;;;;;6261947;22;19915;-87
2022/09/03 07:11:18;;;;;;;;;;;;;;;;;;6261338;22;19926;-87
2022/09/03 07:13:44;;;;;;;;;;;;;;;;;;6232638;22;19934;-87
2022/09/03 07:16:10;;;;;;;;;;;;;;;;;;6260968;22;19989;-87
2022/09/03 07:18:36;;;;;;;;;;;;;;;;;;6258332;22;20375;-87
2022/09/03 07:21:02;;;;;;;;;;;;;;;;;;6260813;22;19947;-87
2022/09/03 07:23:28;;;;;;;;;;;;;;;;;;6255122;22;19946;-88
2022/09/03 07:25:54;;;;;;;;;;;;;;;;;;6233805;22;20259;-87
2022/09/03 07:28:20;;;;;;;;;;;;;;;;;;6238311;22;19915;-88
2022/09/03 07:30:46;;;;;;;;;;;;;;;;;;6231884;22;20359;-87
2022/09/03 07:33:12;;;;;;;;;;;;;;;;;;6226756;22;19923;-87
2022/09/03 07:35:38;;;;;;;;;;;;;;;;;;6259178;22;19920;-87
2022/09/03 07:38:04;;;;;;;;;;;;;;;;;;6263290;22;19921;-87
2022/09/03 07:40:32;;;;;;;;;;;;;;;;;;6231966;22;19973;-84
2022/09/03 07:43:03;;;;;;;;;;;;;;;;;;6257921;22;20336;-87
2022/09/03 07:45:28;;;;;;;;;;;;;;;;;;6261079;22;19926;-86
2022/09/03 07:47:55;;;;;;;;;;;;;;;;;;6260709;22;19916;-85
2022/09/03 07:50:20;;;;;;;;;;;;;;;;;;6261769;22;20336;-84
2022/09/03 07:52:47;;;;;;;;;;;;;;;;;;6257874;22;19923;-87
2022/09/03 07:55:13;;;;;;;;;;;;;;;;;;6234864;22;19927;-85
2022/09/03 07:57:39;;;;;;;;;;;;;;;;;;6228599;22;19926;-85
2022/09/03 08:00:07;;;;;;;;;;;;;;;;;;6233492;22;19919;-85
2022/09/03 08:02:33;;;;;;;;;;;;;;;;;;6258799;22;19923;-85
2022/09/03 08:04:59;;;;;;;;;;;;;;;;;;6260778;22;19989;-85
2022/09/03 08:07:26;;;;;;;;;;;;;;;;;;6235328;22;19982;-85
2022/09/03 08:09:53;;;;;;;;;;;;;;;;;;6264095;22;20285;-85
2022/09/03 08:12:19;;;;;;;;;;;;;;;;;;6262778;22;20025;-85
2022/09/03 08:14:45;;;;;;;;;;;;;;;;;;6258110;22;20343;-85
2022/09/03 08:17:12;;;;;;;;;;;;;;;;;;6263591;22;19919;-85
2022/09/03 08:19:39;;;;;;;;;;;;;;;;;;6237913;22;19942;-86
2022/09/03 08:22:05;;;;;;;;;;;;;;;;;;6238039;22;19919;-85
2022/09/03 08:24:33;;;;;;;;;;;;;;;;;;6261072;22;19927;-85
2022/09/03 08:26:59;;;;;;;;;;;;;;;;;;6264333;22;19990;-85
2022/09/03 08:29:26;;;;;;;;;;;;;;;;;;6263228;22;19915;-84
2022/09/03 08:31:52;;;;;;;;;;;;;;;;;;6265848;22;19923;-84
2022/09/03 08:34:18;;;;;;;;;;;;;;;;;;6267710;22;20030;-84
2022/09/03 08:36:45;;;;;;;;;;;;;;;;;;6264377;22;20044;-85
2022/09/03 08:39:11;;;;;;;;;;;;;;;;;;6266248;22;19944;-85
2022/09/03 08:41:37;;;;;;;;;;;;;;;;;;6239309;22;19915;-85
2022/09/03 08:44:04;;;;;;;;;;;;;;;;;;6269522;22;19924;-85
2022/09/03 08:46:29;;;;;;;;;;;;;;;;;;6263846;22;19919;-86
2022/09/03 08:48:56;;;;;;;;;;;;;;;;;;6267189;22;19961;-88
2022/09/03 08:51:24;;;;;;;;;;;;;;;;;;6242039;22;19923;-90
2022/09/03 08:53:50;;;;;;;;;;;;;;;;;;6241973;22;20225;-88
2022/09/03 08:56:16;;;;;;;;;;;;;;;;;;6266205;22;19985;-88
2022/09/03 08:58:43;;;;;;;;;;;;;;;;;;6238185;22;20319;-88
2022/09/03 09:01:10;;;;;;;;;;;;;;;;;;6267557;22;19969;-88
2022/09/03 09:03:36;;;;;;;;;;;;;;;;;;6262750;22;20328;-88
2022/09/03 09:06:04;;;;;;;;;;;;;;;;;;6242144;22;19926;-88
2022/09/03 09:08:30;;;;;;;;;;;;;;;;;;6262795;22;19963;-88
2022/09/03 09:10:55;;;;;;;;;;;;;;;;;;6241626;22;19919;-88
2022/09/03 09:13:22;;;;;;;;;;;;;;;;;;6240559;22;19977;-88
2022/09/03 09:15:48;;;;;;;;;;;;;;;;;;6242019;22;20029;-88
2022/09/03 09:18:13;;;;;;;;;;;;;;;;;;6239583;22;19942;-89
2022/09/03 09:20:58;;;;;;;;;;;;;;;;;;6261000;22;19926;-93
2022/09/03 09:23:29;;;;;;;;;;;;;;;;;;6261236;22;19930;-89
2022/09/03 09:25:56;;;;;;;;;;;;;;;;;;6240279;22;20364;-89
2022/09/03 09:28:22;;;;;;;;;;;;;;;;;;6267095;22;20319;-89
2022/09/03 09:30:51;;;;;;;;;;;;;;;;;;6241154;22;20324;-90
2022/09/03 09:33:17;;;;;;;;;;;;;;;;;;6264418;22;19923;-90
2022/09/03 09:35:43;;;;;;;;;;;;;;;;;;6257945;22;19923;-90
2022/09/03 09:38:09;;;;;;;;;;;;;;;;;;6234276;22;20017;-89
2022/09/03 09:40:35;;;;;;;;;;;;;;;;;;6231669;22;20368;-90
2022/09/03 09:43:01;;;;;;;;;;;;;;;;;;6239032;22;19965;-89
2022/09/03 09:45:27;;;;;;;;;;;;;;;;;;6236588;22;20394;-90
2022/09/03 09:47:56;;;;;;;;;;;;;;;;;;6265009;22;19923;-90
2022/09/03 09:50:25;;;;;;;;;;;;;;;;;;6236012;22;19984;-90
2022/09/03 09:52:51;;;;;;;;;;;;;;;;;;6263532;22;20387;-90
2022/09/03 09:55:20;;;;;;;;;;;;;;;;;;6261603;22;20374;-89
2022/09/03 09:57:46;;;;;;;;;;;;;;;;;;6259274;22;19923;-90
2022/09/03 10:00:12;;;;;;;;;;;;;;;;;;6240103;22;19946;-90
2022/09/03 10:02:40;;;;;;;;;;;;;;;;;;6259167;22;19915;-90
2022/09/03 10:05:06;;;;;;;;;;;;;;;;;;6240449;22;19919;-90
2022/09/03 10:07:32;;;;;;;;;;;;;;;;;;6235359;22;19941;-90
2022/09/03 10:09:58;;;;;;;;;;;;;;;;;;6232838;22;20290;-89
2022/09/03 10:12:24;;;;;;;;;;;;;;;;;;6234550;22;19923;-90
2022/09/03 10:14:50;;;;;;;;;;;;;;;;;;6238987;22;19972;-90
2022/09/03 10:17:16;;;;;;;;;;;;;;;;;;6237815;22;19954;-91
2022/09/03 10:20:25;;;;;;;;;;;;;;;;;;6255239;22;19926;-90
2022/09/03 10:22:28;;;;;;;;;;;;;;;;;;6262931;22;20354;-91
2022/09/03 10:24:54;;;;;;;;;;;;;;;;;;6239560;22;20029;-90
2022/09/03 10:27:20;;;;;;;;;;;;;;;;;;6238930;22;19915;-91
2022/09/03 10:29:47;;;;;;;;;;;;;;;;;;6238298;22;19962;-91
2022/09/03 10:32:15;;;;;;;;;;;;;;;;;;6238833;22;20492;-91
2022/09/03 10:34:41;;;;;;;;;;;;;;;;;;6261531;22;20328;-91
2022/09/03 10:37:07;;;;;;;;;;;;;;;;;;6239143;22;19919;-91
2022/09/03 10:39:33;;;;;;;;;;;;;;;;;;6236878;22;19955;-89
2022/09/03 10:42:01;;;;;;;;;;;;;;;;;;6236992;22;19919;-88
2022/09/03 10:44:34;;;;;;;;;;;;;;;;;;6238834;22;19991;-88
2022/09/03 10:47:00;;;;;;;;;;;;;;;;;;6260571;22;20405;-89
2022/09/03 10:49:26;;;;;;;;;;;;;;;;;;6233288;22;19923;-89
2022/09/03 10:51:52;;;;;;;;;;;;;;;;;;6236222;22;20406;-90
2022/09/03 10:54:18;;;;;;;;;;;;;;;;;;6236041;22;19919;-90
2022/09/03 10:56:44;;;;;;;;;;;;;;;;;;6233222;22;19920;-90
2022/09/03 10:59:10;;;;;;;;;;;;;;;;;;6233309;22;19965;-90
2022/09/03 11:01:39;;;;;;;;;;;;;;;;;;6231972;22;19919;-90
2022/09/03 11:04:07;;;;;;;;;;;;;;;;;;6236343;22;20228;-91
2022/09/03 11:06:49;;;;;;;;;;;;;;;;;;6260648;22;20403;-90
2022/09/03 11:09:42;;;;;;;;;;;;;;;;;;6236172;22;20332;-90
2022/09/03 11:12:21;;;;;;;;;;;;;;;;;;6230346;22;19927;-91
2022/09/03 11:14:50;;;;;;;;;;;;;;;;;;6229008;22;19966;-90
2022/09/03 11:20:08;;;;;;;;;;;;;;;;;;6229647;22;19926;-91
2022/09/03 11:22:48;;;;;;;;;;;;;;;;;;6230052;22;20497;-90
2022/09/03 11:25:19;;;;;;;;;;;;;;;;;;6233747;22;19919;-90
2022/09/03 11:27:55;;;;;;;;;;;;;;;;;;6232833;22;19923;-90
2022/09/03 11:30:34;;;;;;;;;;;;;;;;;;6257581;22;20003;-90
2022/09/03 11:35:56;;;;;;;;;;;;;;;;;;6235095;22;19919;-90
2022/09/03 11:38:38;;;;;;;;;;;;;;;;;;6234267;22;20294;-90
2022/09/03 11:41:20;;;;;;;;;;;;;;;;;;;;;
2022/09/03 11:43:59;;;;;;;;;;;;;;;;;;;;;
2022/09/03 11:46:44;;;;;;;;;;;;;;;;;;;;;
2022/09/03 11:49:34;;;;;;;;;;;;;;;;;;6254997;22;20219;-91
2022/09/03 11:55:37;;;;;;;;;;;;;;;;;;6260150;22;20232;-92
2022/09/03 12:05:09;;;;;;;;;;;;;;;;;;;;;
2022/09/03 12:14:55;;;;;;;;;;;;;;;;;;;;;
2022/09/03 12:37:38;;;;;;;;;;;;;;;;;;;;;
2022/09/03 12:40:20;;;;;;;;;;;;;;;;;;6254473;22;19919;-89
2022/09/03 12:43:10;;;;;;;;;;;;;;;;;;6228699;22;19923;-88
2022/09/03 12:55:13;;;;;;;;;;;;;;;;;;6177904;22;19919;-88
2022/09/03 12:58:10;;;;;;;;;;;;;;;;;;6109970;23;20312;-88
2022/09/03 13:00:50;;;;;;;;;;;;;;;;;;6140294;23;19996;-88
2022/09/03 13:03:49;;;;;;;;;;;;;;;;;;6200919;22;19945;-88
2022/09/03 13:06:17;;;;;;;;;;;;;;;;;;6229715;22;19915;-88
2022/09/03 13:08:43;;;;;;;;;;;;;;;;;;6230615;22;20005;-89
2022/09/03 13:11:16;;;;;;;;;;;;;;;;;;6228899;22;19919;-88
2022/09/03 13:13:42;;;;;;;;;;;;;;;;;;6255087;22;19996;-89
2022/09/03 13:16:08;;;;;;;;;;;;;;;;;;6232287;22;19977;-88
2022/09/03 13:18:36;;;;;;;;;;;;;;;;;;6229646;22;20340;-88
2022/09/03 13:21:06;;;;;;;;;;;;;;;;;;6258454;22;19919;-88
2022/09/03 13:23:32;;;;;;;;;;;;;;;;;;6229538;22;19919;-88
2022/09/03 13:25:59;;;;;;;;;;;;;;;;;;6258012;22;19915;-88
2022/09/03 13:28:26;;;;;;;;;;;;;;;;;;6229740;22;19986;-88
2022/09/03 13:30:54;;;;;;;;;;;;;;;;;;6259937;22;20014;-89
2022/09/03 13:33:21;;;;;;;;;;;;;;;;;;6233917;22;19927;-89
2022/09/03 13:35:51;;;;;;;;;;;;;;;;;;6235032;22;19919;-88
2022/09/03 14:04:48;;;;;;;;;;;;;;;;;;6292651;22;19969;-86
2022/09/03 14:07:21;;;;;;;;;;;;;;;;;;6265246;22;19940;-85
2022/09/03 14:18:12;;;;;;;;;;;;;;;;;;6294940;22;19918;-86
2022/09/03 14:20:46;;;;;;;;;;;;;;;;;;6267090;22;19990;-85
2022/09/03 14:23:18;;;;;;;;;;;;;;;;;;6243473;22;19919;-85
2022/09/03 14:28:44;;;;;;;;;;;;;;;;;;6265334;22;19946;-86
2022/09/03 14:34:07;;;;;;;;;;;;;;;;;;6262169;22;20332;-85
2022/09/03 14:39:24;;;;;;;;;;;;;;;;;;6257141;22;19919;-88
2022/09/03 14:41:54;;;;;;;;;;;;;;;;;;6244380;22;19915;-86
2022/09/03 14:49:59;;;;;;;;;;;;;;;;;;6255873;22;19934;-86
2022/09/03 14:52:41;;;;;;;;;;;;;;;;;;;;;
2022/09/03 14:55:18;;;;;;;;;;;;;;;;;;6268896;22;19926;-86
2022/09/03 14:57:54;;;;;;;;;;;;;;;;;;6245345;22;19963;-86
2022/09/03 15:00:33;;;;;;;;;;;;;;;;;;6298467;22;19918;-86
2022/09/03 15:06:15;;;;;;;;;;;;;;;;;;6256286;22;20294;-87
2022/09/03 15:11:56;;;;;;;;;;;;;;;;;;6178391;23;19920;-88
2022/09/03 15:14:50;;;;;;;;;;;;;;;;;;6191926;22;19929;-88
2022/09/03 15:20:40;;;;;;;;;;;;;;;;;;6302591;22;19913;-88
2022/09/03 15:23:10;;;;;;;;;;;;;;;;;;6245011;22;19951;-88
2022/09/03 15:25:40;;;;;;;;;;;;;;;;;;6268882;22;19929;-88
2022/09/03 15:28:08;;;;;;;;;;;;;;;;;;6246186;22;19939;-88
2022/09/03 15:30:35;;;;;;;;;;;;;;;;;;6244566;22;20286;-88
2022/09/03 15:33:02;;;;;;;;;;;;;;;;;;6269677;22;19997;-88
2022/09/03 15:35:33;;;;;;;;;;;;;;;;;;6243901;22;19968;-88
2022/09/03 15:38:06;;;;;;;;;;;;;;;;;;6299578;22;19961;-88
2022/09/03 15:40:32;;;;;;;;;;;;;;;;;;6269992;22;19926;-88
2022/09/03 15:42:58;;;;;;;;;;;;;;;;;;6245106;22;20571;-88
2022/09/03 15:45:27;;;;;;;;;;;;;;;;;;6243836;22;19990;-88
2022/09/03 15:47:58;;;;;;;;;;;;;;;;;;6247927;22;19919;-89
2022/09/03 15:50:39;;;;;;;;;;;;;;;;;;6296830;22;19918;-88
2022/09/03 15:53:30;;;;;;;;;;;;;;;;;;6206418;23;19920;-88
2022/09/03 15:56:04;;;;;;;;;;;;;;;;;;6231694;23;19923;-88
2022/09/03 15:58:36;;;;;;;;;;;;;;;;;;6206863;23;19943;-88
2022/09/03 16:01:09;;;;;;;;;;;;;;;;;;6208895;23;20347;-88
2022/09/03 16:03:44;;;;;;;;;;;;;;;;;;6203882;23;19922;-88
2022/09/03 16:06:11;;;;;;;;;;;;;;;;;;6215105;23;20267;-88
2022/09/03 16:08:38;;;;;;;;;;;;;;;;;;6211365;23;19923;-88
2022/09/03 16:11:08;;;;;;;;;;;;;;;;;;6209482;23;20245;-88
2022/09/03 16:13:39;;;;;;;;;;;;;;;;;;6209022;23;19915;-87
2022/09/03 16:16:05;;;;;;;;;;;;;;;;;;6208617;23;19920;-87
2022/09/03 16:18:33;;;;;;;;;;;;;;;;;;6206440;23;19919;-88
2022/09/03 16:21:13;;;;;;;;;;;;;;;;;;6209298;23;19923;-87
2022/09/03 16:23:40;;;;;;;;;;;;;;;;;;6179995;23;19923;-88
2022/09/03 16:26:11;;;;;;;;;;;;;;;;;;6182845;23;19915;-88
2022/09/03 16:28:39;;;;;;;;;;;;;;;;;;6179409;23;19920;-88
2022/09/03 16:31:06;;;;;;;;;;;;;;;;;;6184443;23;20287;-88
2022/09/03 16:33:37;;;;;;;;;;;;;;;;;;6181815;23;20687;-88
2022/09/03 16:36:04;;;;;;;;;;;;;;;;;;6181817;23;19981;-88
2022/09/03 16:38:31;;;;;;;;;;;;;;;;;;6181147;23;20244;-88
2022/09/03 16:41:01;;;;;;;;;;;;;;;;;;6184817;23;20543;-88
2022/09/03 16:43:40;;;;;;;;;;;;;;;;;;6236820;22;19926;-88
2022/09/03 16:46:08;;;;;;;;;;;;;;;;;;6243447;22;19915;-88
2022/09/03 16:48:34;;;;;;;;;;;;;;;;;;6265815;22;19915;-88
2022/09/03 16:51:04;;;;;;;;;;;;;;;;;;6242868;22;19964;-88
2022/09/03 16:53:32;;;;;;;;;;;;;;;;;;6265939;22;19981;-88
2022/09/03 16:55:58;;;;;;;;;;;;;;;;;;6242669;22;19955;-87
2022/09/03 16:58:28;;;;;;;;;;;;;;;;;;6240615;22;19919;-88
2022/09/03 17:00:55;;;;;;;;;;;;;;;;;;6269143;22;19973;-88
2022/09/03 17:03:23;;;;;;;;;;;;;;;;;;6241862;22;19919;-88
2022/09/03 17:05:53;;;;;;;;;;;;;;;;;;6268233;22;20044;-87
2022/09/03 17:08:19;;;;;;;;;;;;;;;;;;6241845;22;20625;-87
2022/09/03 17:10:47;;;;;;;;;;;;;;;;;;6265950;22;19923;-87
2022/09/03 17:13:18;;;;;;;;;;;;;;;;;;6269390;22;19919;-88
2022/09/03 17:15:46;;;;;;;;;;;;;;;;;;6266123;22;19927;-88
2022/09/03 17:18:12;;;;;;;;;;;;;;;;;;6266268;22;19919;-87
2022/09/03 17:20:39;;;;;;;;;;;;;;;;;;6238518;22;19981;-88
2022/09/03 17:23:08;;;;;;;;;;;;;;;;;;6242325;22;19923;-88
2022/09/03 17:25:34;;;;;;;;;;;;;;;;;;6240205;22;19926;-88
2022/09/03 17:28:18;;;;;;;;;;;;;;;;;;6269194;22;20285;-87
2022/09/03 17:30:48;;;;;;;;;;;;;;;;;;6240303;22;19926;-87
2022/09/03 17:33:31;;;;;;;;;;;;;;;;;;6241422;22;20013;-88
2022/09/03 17:35:58;;;;;;;;;;;;;;;;;;6242326;22;19954;-87
2022/09/03 17:38:24;;;;;;;;;;;;;;;;;;6240773;22;19916;-88
2022/09/03 17:40:50;;;;;;;;;;;;;;;;;;6242563;22;20323;-87
2022/09/03 17:43:18;;;;;;;;;;;;;;;;;;6242215;22;19921;-87
2022/09/03 17:45:47;;;;;;;;;;;;;;;;;;6203805;23;19919;-88
2022/09/03 17:48:14;;;;;;;;;;;;;;;;;;6181500;23;19920;-87
2022/09/03 17:50:43;;;;;;;;;;;;;;;;;;6202106;23;20107;-88
2022/09/03 17:53:09;;;;;;;;;;;;;;;;;;6179405;23;19916;-88
2022/09/03 17:55:35;;;;;;;;;;;;;;;;;;6177717;23;19935;-87
2022/09/03 17:58:06;;;;;;;;;;;;;;;;;;6180141;23;19920;-87
2022/09/03 18:00:33;;;;;;;;;;;;;;;;;;6177406;23;19943;-88
2022/09/03 18:03:04;;;;;;;;;;;;;;;;;;6179638;23;20037;-87
2022/09/03 18:05:30;;;;;;;;;;;;;;;;;;6176887;23;19916;-87
2022/09/03 18:08:04;;;;;;;;;;;;;;;;;;6206023;23;20006;-87
2022/09/03 18:10:30;;;;;;;;;;;;;;;;;;6177350;23;19916;-87
2022/09/03 18:12:59;;;;;;;;;;;;;;;;;;6178915;23;19931;-87
2022/09/03 18:15:33;;;;;;;;;;;;;;;;;;6177875;23;20003;-88
2022/09/03 18:18:01;;;;;;;;;;;;;;;;;;6216785;22;19961;-87
2022/09/03 20:27:19;;;;;;;;;;;;;;;;;;6219845;22;19919;-88
2022/09/03 20:29:45;;;;;;;;;;;;;;;;;;6235193;22;19924;-88
2022/09/03 20:32:11;;;;;;;;;;;;;;;;;;6235149;22;19933;-88
2022/09/03 20:34:37;;;;;;;;;;;;;;;;;;6231961;22;20347;-88
2022/09/03 20:37:03;;;;;;;;;;;;;;;;;;6234327;22;19962;-88
2022/09/03 20:39:29;;;;;;;;;;;;;;;;;;6231774;22;19926;-88
2022/09/03 20:41:59;;;;;;;;;;;;;;;;;;6235411;22;19968;-88
2022/09/03 20:44:25;;;;;;;;;;;;;;;;;;6232673;22;20355;-88
2022/09/03 20:46:57;;;;;;;;;;;;;;;;;;6261179;22;19935;-88
2022/09/03 20:49:23;;;;;;;;;;;;;;;;;;6236672;22;20244;-88
2022/09/03 20:51:55;;;;;;;;;;;;;;;;;;6235586;22;19998;-87
2022/09/03 20:54:21;;;;;;;;;;;;;;;;;;6236586;22;19990;-88
2022/09/03 20:56:50;;;;;;;;;;;;;;;;;;6234147;22;19915;-88
2022/09/03 20:59:18;;;;;;;;;;;;;;;;;;6237457;22;20449;-88
2022/09/03 21:01:44;;;;;;;;;;;;;;;;;;6234459;22;19926;-88